RYR161 LFML-LIRN
Flight info
| Callsign | RYR161 |
|---|---|
| Flight time | N/A |
| Altitude | 37000 |
| Route | NASIK P856 RAPED DCT RAPUR DCT RATAP DCT BTA DCT DOKAR DCT SUNEV DCT ELVIN DCT RIFFI M729 PNZ |
| Aircraft | B738/M-SDE2E3FGHIRWXY/LB1 |
Departure
| Time | 2026-05-05 08:33 |
|---|---|
| Airport | Marseille Provence Airport (LFML) |
Arrival
| Time | N/A |
|---|---|
| Airport | Naples International Airport (LIRN) |
| Time | Latitude | Longitude | Altitude | Speed | Heading |
|---|---|---|---|---|---|
| 2026-05-05 08:10 | 43.44012 | 5.22155 | 39 ft | 0 kts | 34° |
| 2026-05-05 08:24 | 43.44001 | 5.22145 | 39 ft | 4 kts | 35° |
| 2026-05-05 08:25 | 43.43980 | 5.22122 | 34 ft | 4 kts | 48° |
| 2026-05-05 08:25 | 43.43966 | 5.22092 | 37 ft | 4 kts | 78° |
| 2026-05-05 08:25 | 43.43968 | 5.22065 | 39 ft | 1 kts | 134° |
| 2026-05-05 08:25 | 43.43969 | 5.22065 | 39 ft | 1 kts | 134° |
| 2026-05-05 08:28 | 43.43964 | 5.22072 | 39 ft | 3 kts | 134° |
| 2026-05-05 08:28 | 43.43953 | 5.22086 | 36 ft | 1 kts | 134° |
| 2026-05-05 08:28 | 43.43933 | 5.22115 | 40 ft | 7 kts | 134° |
| 2026-05-05 08:28 | 43.43878 | 5.22154 | 41 ft | 12 kts | 202° |
| 2026-05-05 08:29 | 43.43815 | 5.22073 | 42 ft | 12 kts | 224° |
| 2026-05-05 08:29 | 43.43740 | 5.22027 | 42 ft | 13 kts | 166° |
| 2026-05-05 08:29 | 43.43665 | 5.22085 | 45 ft | 12 kts | 147° |
| 2026-05-05 08:30 | 43.43521 | 5.22201 | 49 ft | 12 kts | 150° |
| 2026-05-05 08:30 | 43.43451 | 5.22256 | 51 ft | 11 kts | 150° |
| 2026-05-05 08:30 | 43.43376 | 5.22294 | 50 ft | 13 kts | 164° |
| 2026-05-05 08:30 | 43.43300 | 5.22366 | 53 ft | 15 kts | 130° |
| 2026-05-05 08:31 | 43.43225 | 5.22476 | 53 ft | 17 kts | 133° |
| 2026-05-05 08:31 | 43.43137 | 5.22600 | 63 ft | 19 kts | 134° |
| 2026-05-05 08:31 | 43.43037 | 5.22744 | 63 ft | 22 kts | 134° |
| 2026-05-05 08:31 | 43.42932 | 5.22892 | 69 ft | 19 kts | 135° |
| 2026-05-05 08:32 | 43.42832 | 5.22948 | 71 ft | 13 kts | 204° |
| 2026-05-05 08:32 | 43.42752 | 5.22866 | 66 ft | 14 kts | 232° |
| 2026-05-05 08:32 | 43.42773 | 5.22779 | 66 ft | 0 kts | 313° |
| 2026-05-05 08:32 | 43.42822 | 5.22707 | 68 ft | 39 kts | 313° |
| 2026-05-05 08:33 | 43.43183 | 5.22192 | 52 ft | 109 kts | 313° |
| 2026-05-05 08:33 | 43.43853 | 5.21236 | 60 ft | 162 kts | 313° |
| 2026-05-05 08:33 | 43.44723 | 5.20170 | 667 ft | 170 kts | 319° |
| 2026-05-05 08:33 | 43.45628 | 5.19113 | 1455 ft | 169 kts | 310° |
| 2026-05-05 08:34 | 43.46417 | 5.17886 | 2106 ft | 180 kts | 310° |
| 2026-05-05 08:34 | 43.47290 | 5.16566 | 2727 ft | 189 kts | 310° |
| 2026-05-05 08:34 | 43.48330 | 5.15479 | 3431 ft | 202 kts | 339° |
| 2026-05-05 08:34 | 43.49781 | 5.15585 | 3789 ft | 222 kts | 24° |
| 2026-05-05 08:35 | 43.50954 | 5.17010 | 4312 ft | 234 kts | 58° |
| 2026-05-05 08:35 | 43.51423 | 5.19156 | 4949 ft | 237 kts | 84° |
| 2026-05-05 08:35 | 43.51579 | 5.21429 | 5610 ft | 240 kts | 85° |
| 2026-05-05 08:35 | 43.51745 | 5.23738 | 6182 ft | 245 kts | 84° |
| 2026-05-05 08:36 | 43.51657 | 5.26147 | 6494 ft | 261 kts | 108° |
| 2026-05-05 08:36 | 43.51086 | 5.28567 | 6928 ft | 275 kts | 110° |
| 2026-05-05 08:36 | 43.50463 | 5.31172 | 7312 ft | 292 kts | 110° |
| 2026-05-05 08:36 | 43.49841 | 5.33860 | 8065 ft | 296 kts | 109° |
| 2026-05-05 08:37 | 43.49240 | 5.36529 | 8886 ft | 297 kts | 110° |
| 2026-05-05 08:37 | 43.48632 | 5.39277 | 9702 ft | 301 kts | 109° |
| 2026-05-05 08:37 | 43.48021 | 5.42069 | 10332 ft | 310 kts | 110° |
| 2026-05-05 08:37 | 43.47375 | 5.45029 | 10524 ft | 335 kts | 109° |
| 2026-05-05 08:38 | 43.46686 | 5.48200 | 10705 ft | 357 kts | 109° |
| 2026-05-05 08:38 | 43.45964 | 5.51542 | 11176 ft | 368 kts | 109° |
| 2026-05-05 08:38 | 43.45232 | 5.54946 | 11834 ft | 372 kts | 109° |
| 2026-05-05 08:38 | 43.44494 | 5.58375 | 12569 ft | 375 kts | 109° |
| 2026-05-05 08:39 | 43.43753 | 5.61807 | 13237 ft | 380 kts | 110° |
| 2026-05-05 08:39 | 43.42993 | 5.65318 | 13898 ft | 384 kts | 110° |
| 2026-05-05 08:39 | 43.42222 | 5.68863 | 14517 ft | 387 kts | 110° |
| 2026-05-05 08:39 | 43.41545 | 5.72471 | 15114 ft | 394 kts | 103° |
| 2026-05-05 08:40 | 43.41324 | 5.76260 | 15736 ft | 401 kts | 91° |
| 2026-05-05 08:40 | 43.41447 | 5.80109 | 16378 ft | 404 kts | 89° |
| 2026-05-05 08:40 | 43.41611 | 5.83944 | 16976 ft | 408 kts | 89° |
| 2026-05-05 08:40 | 43.41779 | 5.87860 | 17551 ft | 412 kts | 89° |
| 2026-05-05 08:41 | 43.41938 | 5.91811 | 18149 ft | 415 kts | 90° |
| 2026-05-05 08:41 | 43.42087 | 5.95795 | 18662 ft | 419 kts | 90° |
| 2026-05-05 08:41 | 43.42228 | 5.99830 | 19126 ft | 424 kts | 90° |
| 2026-05-05 08:41 | 43.42364 | 6.03905 | 19598 ft | 429 kts | 90° |
| 2026-05-05 08:42 | 43.42500 | 6.08032 | 20061 ft | 433 kts | 90° |
| 2026-05-05 08:42 | 43.42633 | 6.12146 | 20479 ft | 438 kts | 90° |
| 2026-05-05 08:42 | 43.42769 | 6.16361 | 20926 ft | 442 kts | 90° |
| 2026-05-05 08:42 | 43.42906 | 6.20628 | 21372 ft | 447 kts | 90° |
| 2026-05-05 08:43 | 43.43040 | 6.24921 | 21818 ft | 450 kts | 91° |
| 2026-05-05 08:43 | 43.43002 | 6.29233 | 22253 ft | 451 kts | 99° |
| 2026-05-05 08:43 | 43.42645 | 6.33484 | 22687 ft | 453 kts | 102° |
| 2026-05-05 08:43 | 43.42210 | 6.37811 | 23112 ft | 457 kts | 102° |
| 2026-05-05 08:44 | 43.41767 | 6.42115 | 23519 ft | 461 kts | 102° |
| 2026-05-05 08:44 | 43.41326 | 6.46509 | 23888 ft | 464 kts | 102° |
| 2026-05-05 08:44 | 43.40898 | 6.50943 | 24249 ft | 466 kts | 101° |
| 2026-05-05 08:44 | 43.40486 | 6.55332 | 24615 ft | 469 kts | 101° |
| 2026-05-05 08:45 | 43.40074 | 6.59762 | 24961 ft | 472 kts | 101° |
| 2026-05-05 08:45 | 43.39652 | 6.64321 | 25306 ft | 475 kts | 101° |
| 2026-05-05 08:45 | 43.39235 | 6.68801 | 25630 ft | 478 kts | 101° |
| 2026-05-05 08:45 | 43.38809 | 6.73357 | 25982 ft | 480 kts | 101° |
| 2026-05-05 08:46 | 43.38379 | 6.77932 | 26314 ft | 483 kts | 101° |
| 2026-05-05 08:46 | 43.37945 | 6.82520 | 26619 ft | 485 kts | 101° |
| 2026-05-05 08:46 | 43.37506 | 6.87091 | 26918 ft | 487 kts | 102° |
| 2026-05-05 08:46 | 43.36797 | 6.91690 | 27228 ft | 484 kts | 112° |
| 2026-05-05 08:47 | 43.35712 | 6.96006 | 27537 ft | 484 kts | 115° |
| 2026-05-05 08:47 | 43.34541 | 7.00371 | 27831 ft | 486 kts | 115° |
| 2026-05-05 08:47 | 43.33351 | 7.04750 | 28106 ft | 489 kts | 115° |
| 2026-05-05 08:47 | 43.32177 | 7.09087 | 28374 ft | 491 kts | 115° |
| 2026-05-05 08:48 | 43.30991 | 7.13519 | 28641 ft | 493 kts | 115° |